sensor_id;sensor_type;location;lat;lon;timestamp;temperature;humidity
11284;DHT22;5698;47.332;11.180;2023-10-09T00:02:43;13.60;98.80
11284;DHT22;5698;47.332;11.180;2023-10-09T00:05:10;13.60;98.30
11284;DHT22;5698;47.332;11.180;2023-10-09T00:07:48;13.70;98.10
11284;DHT22;5698;47.332;11.180;2023-10-09T00:10:15;13.60;98.70
11284;DHT22;5698;47.332;11.180;2023-10-09T00:12:45;13.60;98.20
11284;DHT22;5698;47.332;11.180;2023-10-09T00:15:14;13.70;97.90
11284;DHT22;5698;47.332;11.180;2023-10-09T00:17:43;13.80;97.90
11284;DHT22;5698;47.332;11.180;2023-10-09T00:20:12;13.70;97.50
11284;DHT22;5698;47.332;11.180;2023-10-09T00:22:56;13.70;97.70
11284;DHT22;5698;47.332;11.180;2023-10-09T00:25:23;13.70;98.00
11284;DHT22;5698;47.332;11.180;2023-10-09T00:27:57;13.70;97.50
11284;DHT22;5698;47.332;11.180;2023-10-09T00:30:25;13.80;97.50
11284;DHT22;5698;47.332;11.180;2023-10-09T00:32:55;13.80;97.50
11284;DHT22;5698;47.332;11.180;2023-10-09T00:35:29;13.70;97.00
11284;DHT22;5698;47.332;11.180;2023-10-09T00:38:12;13.70;97.60
11284;DHT22;5698;47.332;11.180;2023-10-09T00:40:50;13.70;97.20
11284;DHT22;5698;47.332;11.180;2023-10-09T00:43:24;13.70;97.40
11284;DHT22;5698;47.332;11.180;2023-10-09T00:45:55;13.70;97.00
11284;DHT22;5698;47.332;11.180;2023-10-09T00:48:26;13.60;97.20
11284;DHT22;5698;47.332;11.180;2023-10-09T00:51:02;13.60;97.10
11284;DHT22;5698;47.332;11.180;2023-10-09T00:53:43;13.60;96.90
11284;DHT22;5698;47.332;11.180;2023-10-09T00:56:11;13.70;96.70
11284;DHT22;5698;47.332;11.180;2023-10-09T00:58:46;13.80;96.50
11284;DHT22;5698;47.332;11.180;2023-10-09T01:01:15;13.80;96.80
11284;DHT22;5698;47.332;11.180;2023-10-09T01:03:42;13.90;96.50
11284;DHT22;5698;47.332;11.180;2023-10-09T01:06:11;13.90;96.00
11284;DHT22;5698;47.332;11.180;2023-10-09T01:08:47;13.90;96.30
11284;DHT22;5698;47.332;11.180;2023-10-09T01:11:26;13.90;96.00
11284;DHT22;5698;47.332;11.180;2023-10-09T01:13:57;13.90;96.30
11284;DHT22;5698;47.332;11.180;2023-10-09T01:16:38;13.90;96.10
11284;DHT22;5698;47.332;11.180;2023-10-09T01:19:06;13.80;96.10
11284;DHT22;5698;47.332;11.180;2023-10-09T01:21:39;13.80;96.20
11284;DHT22;5698;47.332;11.180;2023-10-09T01:24:08;13.70;96.30
11284;DHT22;5698;47.332;11.180;2023-10-09T01:26:36;13.60;96.70
11284;DHT22;5698;47.332;11.180;2023-10-09T01:29:11;13.60;96.30
11284;DHT22;5698;47.332;11.180;2023-10-09T01:31:42;13.60;96.30
11284;DHT22;5698;47.332;11.180;2023-10-09T01:34:20;13.50;96.60
11284;DHT22;5698;47.332;11.180;2023-10-09T01:36:51;13.40;97.10
11284;DHT22;5698;47.332;11.180;2023-10-09T01:39:22;13.30;97.40
11284;DHT22;5698;47.332;11.180;2023-10-09T01:41:52;13.20;97.50
11284;DHT22;5698;47.332;11.180;2023-10-09T01:44:25;13.00;97.70
11284;DHT22;5698;47.332;11.180;2023-10-09T01:47:00;13.00;97.80
11284;DHT22;5698;47.332;11.180;2023-10-09T01:49:33;12.90;97.60
11284;DHT22;5698;47.332;11.180;2023-10-09T01:52:01;13.00;97.50
11284;DHT22;5698;47.332;11.180;2023-10-09T01:54:36;13.10;96.70
11284;DHT22;5698;47.332;11.180;2023-10-09T01:57:04;13.10;96.80
11284;DHT22;5698;47.332;11.180;2023-10-09T01:59:38;13.20;96.30
11284;DHT22;5698;47.332;11.180;2023-10-09T02:02:10;13.30;96.20
11284;DHT22;5698;47.332;11.180;2023-10-09T02:04:50;13.30;96.40
11284;DHT22;5698;47.332;11.180;2023-10-09T02:07:19;13.30;96.60
11284;DHT22;5698;47.332;11.180;2023-10-09T02:09:55;13.30;96.40
11284;DHT22;5698;47.332;11.180;2023-10-09T02:12:22;13.30;96.50
11284;DHT22;5698;47.332;11.180;2023-10-09T02:14:50;13.30;96.70
11284;DHT22;5698;47.332;11.180;2023-10-09T02:17:21;13.20;96.90
11284;DHT22;5698;47.332;11.180;2023-10-09T02:19:54;13.10;97.00
11284;DHT22;5698;47.332;11.180;2023-10-09T02:22:23;13.10;97.00
11284;DHT22;5698;47.332;11.180;2023-10-09T02:24:51;13.20;96.50
11284;DHT22;5698;47.332;11.180;2023-10-09T02:27:26;13.20;96.40
11284;DHT22;5698;47.332;11.180;2023-10-09T02:30:19;13.20;96.60
11284;DHT22;5698;47.332;11.180;2023-10-09T02:32:53;13.20;96.30
11284;DHT22;5698;47.332;11.180;2023-10-09T02:35:32;13.20;95.90
11284;DHT22;5698;47.332;11.180;2023-10-09T02:38:04;13.20;97.10
11284;DHT22;5698;47.332;11.180;2023-10-09T02:40:35;13.20;96.30
11284;DHT22;5698;47.332;11.180;2023-10-09T02:43:20;13.10;96.60
11284;DHT22;5698;47.332;11.180;2023-10-09T02:45:50;13.00;96.90
11284;DHT22;5698;47.332;11.180;2023-10-09T02:48:17;13.00;97.30
11284;DHT22;5698;47.332;11.180;2023-10-09T02:50:46;12.90;96.80
11284;DHT22;5698;47.332;11.180;2023-10-09T02:53:16;12.90;96.80
11284;DHT22;5698;47.332;11.180;2023-10-09T02:55:55;12.80;97.40
11284;DHT22;5698;47.332;11.180;2023-10-09T02:58:39;12.80;96.90
11284;DHT22;5698;47.332;11.180;2023-10-09T03:01:11;12.80;96.80
11284;DHT22;5698;47.332;11.180;2023-10-09T03:03:40;12.90;96.70
11284;DHT22;5698;47.332;11.180;2023-10-09T03:06:11;12.80;96.60
11284;DHT22;5698;47.332;11.180;2023-10-09T03:08:38;12.70;97.00
11284;DHT22;5698;47.332;11.180;2023-10-09T03:11:07;12.70;97.30
11284;DHT22;5698;47.332;11.180;2023-10-09T03:13:41;12.70;96.70
11284;DHT22;5698;47.332;11.180;2023-10-09T03:16:10;12.60;97.20
11284;DHT22;5698;47.332;11.180;2023-10-09T03:18:45;12.50;97.60
11284;DHT22;5698;47.332;11.180;2023-10-09T03:21:13;12.30;97.80
11284;DHT22;5698;47.332;11.180;2023-10-09T03:23:40;12.20;97.80
11284;DHT22;5698;47.332;11.180;2023-10-09T03:26:09;12.10;98.00
11284;DHT22;5698;47.332;11.180;2023-10-09T03:28:36;12.00;98.30
11284;DHT22;5698;47.332;11.180;2023-10-09T03:31:05;11.90;98.20
11284;DHT22;5698;47.332;11.180;2023-10-09T03:33:32;11.80;98.40
11284;DHT22;5698;47.332;11.180;2023-10-09T03:35:59;11.70;98.40
11284;DHT22;5698;47.332;11.180;2023-10-09T03:38:27;11.60;98.60
11284;DHT22;5698;47.332;11.180;2023-10-09T03:41:01;11.70;97.90
11284;DHT22;5698;47.332;11.180;2023-10-09T03:43:31;11.90;97.40
11284;DHT22;5698;47.332;11.180;2023-10-09T03:46:05;12.00;97.20
11284;DHT22;5698;47.332;11.180;2023-10-09T03:48:39;12.10;97.30
11284;DHT22;5698;47.332;11.180;2023-10-09T03:51:09;12.20;97.60
11284;DHT22;5698;47.332;11.180;2023-10-09T03:53:38;12.20;96.90
11284;DHT22;5698;47.332;11.180;2023-10-09T03:56:06;12.30;96.60
11284;DHT22;5698;47.332;11.180;2023-10-09T03:58:38;12.30;97.30
11284;DHT22;5698;47.332;11.180;2023-10-09T04:01:10;12.30;97.20
11284;DHT22;5698;47.332;11.180;2023-10-09T04:03:48;12.20;96.70
11284;DHT22;5698;47.332;11.180;2023-10-09T04:06:15;12.20;97.00
11284;DHT22;5698;47.332;11.180;2023-10-09T04:08:43;12.10;97.50
11284;DHT22;5698;47.332;11.180;2023-10-09T04:11:14;12.20;97.00
11284;DHT22;5698;47.332;11.180;2023-10-09T04:13:48;12.30;96.50
11284;DHT22;5698;47.332;11.180;2023-10-09T04:16:17;12.30;96.40
11284;DHT22;5698;47.332;11.180;2023-10-09T04:19:00;12.40;96.70
11284;DHT22;5698;47.332;11.180;2023-10-09T04:21:32;12.40;96.40
11284;DHT22;5698;47.332;11.180;2023-10-09T04:24:02;12.30;97.00
11284;DHT22;5698;47.332;11.180;2023-10-09T04:26:46;12.20;97.00
11284;DHT22;5698;47.332;11.180;2023-10-09T04:29:14;12.20;96.80
11284;DHT22;5698;47.332;11.180;2023-10-09T04:31:45;12.10;97.60
11284;DHT22;5698;47.332;11.180;2023-10-09T04:34:17;12.10;96.50
11284;DHT22;5698;47.332;11.180;2023-10-09T04:36:55;12.00;97.20
11284;DHT22;5698;47.332;11.180;2023-10-09T04:39:26;12.00;96.80
11284;DHT22;5698;47.332;11.180;2023-10-09T04:42:03;12.00;96.80
11284;DHT22;5698;47.332;11.180;2023-10-09T04:44:52;11.90;97.50
11284;DHT22;5698;47.332;11.180;2023-10-09T04:47:40;11.90;97.40
11284;DHT22;5698;47.332;11.180;2023-10-09T04:50:15;11.90;97.40
11284;DHT22;5698;47.332;11.180;2023-10-09T04:52:56;11.80;97.20
11284;DHT22;5698;47.332;11.180;2023-10-09T04:55:43;11.80;97.50
11284;DHT22;5698;47.332;11.180;2023-10-09T04:58:19;11.70;97.60
11284;DHT22;5698;47.332;11.180;2023-10-09T05:00:54;11.70;97.70
11284;DHT22;5698;47.332;11.180;2023-10-09T05:03:41;11.70;97.30
11284;DHT22;5698;47.332;11.180;2023-10-09T05:06:11;11.70;97.40
11284;DHT22;5698;47.332;11.180;2023-10-09T05:08:55;11.70;97.10
11284;DHT22;5698;47.332;11.180;2023-10-09T05:11:34;11.60;97.80
11284;DHT22;5698;47.332;11.180;2023-10-09T05:14:00;11.50;98.10
11284;DHT22;5698;47.332;11.180;2023-10-09T05:16:40;11.50;97.90
11284;DHT22;5698;47.332;11.180;2023-10-09T05:19:21;11.40;97.10
11284;DHT22;5698;47.332;11.180;2023-10-09T05:22:08;11.40;97.70
11284;DHT22;5698;47.332;11.180;2023-10-09T05:24:35;11.50;97.60
11284;DHT22;5698;47.332;11.180;2023-10-09T05:27:12;11.50;97.30
11284;DHT22;5698;47.332;11.180;2023-10-09T05:30:10;11.50;97.50
11284;DHT22;5698;47.332;11.180;2023-10-09T05:32:54;11.50;97.70
11284;DHT22;5698;47.332;11.180;2023-10-09T05:35:53;11.60;97.60
11284;DHT22;5698;47.332;11.180;2023-10-09T05:38:40;11.60;96.90
11284;DHT22;5698;47.332;11.180;2023-10-09T05:41:12;11.60;98.00
11284;DHT22;5698;47.332;11.180;2023-10-09T05:43:56;11.50;98.50
11284;DHT22;5698;47.332;11.180;2023-10-09T05:46:41;11.50;98.30
11284;DHT22;5698;47.332;11.180;2023-10-09T05:49:29;11.40;98.50
11284;DHT22;5698;47.332;11.180;2023-10-09T05:52:13;11.40;98.50
11284;DHT22;5698;47.332;11.180;2023-10-09T05:55:09;11.40;98.50
11284;DHT22;5698;47.332;11.180;2023-10-09T05:58:01;11.50;97.40
11284;DHT22;5698;47.332;11.180;2023-10-09T06:00:46;11.70;97.60
11284;DHT22;5698;47.332;11.180;2023-10-09T06:03:30;11.80;97.10
11284;DHT22;5698;47.332;11.180;2023-10-09T06:06:24;11.80;97.40
11284;DHT22;5698;47.332;11.180;2023-10-09T06:09:09;11.90;97.00
11284;DHT22;5698;47.332;11.180;2023-10-09T06:11:53;12.10;96.10
11284;DHT22;5698;47.332;11.180;2023-10-09T06:14:41;12.20;96.40
11284;DHT22;5698;47.332;11.180;2023-10-09T06:17:24;12.30;95.40
11284;DHT22;5698;47.332;11.180;2023-10-09T06:19:53;12.50;96.40
11284;DHT22;5698;47.332;11.180;2023-10-09T06:22:26;12.60;97.40
11284;DHT22;5698;47.332;11.180;2023-10-09T06:25:10;12.70;96.60
11284;DHT22;5698;47.332;11.180;2023-10-09T06:27:38;12.70;97.40
11284;DHT22;5698;47.332;11.180;2023-10-09T06:30:21;12.80;96.90
11284;DHT22;5698;47.332;11.180;2023-10-09T06:32:52;12.90;96.90
11284;DHT22;5698;47.332;11.180;2023-10-09T06:35:36;13.00;96.30
11284;DHT22;5698;47.332;11.180;2023-10-09T06:38:06;13.10;96.40
11284;DHT22;5698;47.332;11.180;2023-10-09T06:40:49;13.10;96.40
11284;DHT22;5698;47.332;11.180;2023-10-09T06:43:34;13.30;96.90
11284;DHT22;5698;47.332;11.180;2023-10-09T06:46:15;13.50;97.30
11284;DHT22;5698;47.332;11.180;2023-10-09T06:48:59;13.70;97.20
11284;DHT22;5698;47.332;11.180;2023-10-09T06:51:46;14.10;95.90
11284;DHT22;5698;47.332;11.180;2023-10-09T06:54:14;14.50;95.30
11284;DHT22;5698;47.332;11.180;2023-10-09T06:56:42;14.90;94.90
11284;DHT22;5698;47.332;11.180;2023-10-09T06:59:26;15.20;94.70
11284;DHT22;5698;47.332;11.180;2023-10-09T07:02:07;15.60;92.30
11284;DHT22;5698;47.332;11.180;2023-10-09T07:04:57;15.90;92.60
11284;DHT22;5698;47.332;11.180;2023-10-09T07:07:36;16.20;92.10
11284;DHT22;5698;47.332;11.180;2023-10-09T07:10:17;16.60;91.10
11284;DHT22;5698;47.332;11.180;2023-10-09T07:12:59;16.90;91.50
11284;DHT22;5698;47.332;11.180;2023-10-09T07:15:25;17.30;89.70
11284;DHT22;5698;47.332;11.180;2023-10-09T07:18:10;17.60;88.90
11284;DHT22;5698;47.332;11.180;2023-10-09T07:20:49;18.00;88.40
11284;DHT22;5698;47.332;11.180;2023-10-09T07:23:27;18.50;86.50
11284;DHT22;5698;47.332;11.180;2023-10-09T07:26:06;18.80;85.10
11284;DHT22;5698;47.332;11.180;2023-10-09T07:28:49;19.20;83.90
11284;DHT22;5698;47.332;11.180;2023-10-09T07:31:20;19.60;81.80
11284;DHT22;5698;47.332;11.180;2023-10-09T07:34:05;20.10;81.70
11284;DHT22;5698;47.332;11.180;2023-10-09T07:36:53;20.60;78.20
11284;DHT22;5698;47.332;11.180;2023-10-09T07:39:22;21.10;76.20
11284;DHT22;5698;47.332;11.180;2023-10-09T07:41:51;21.30;75.50
11284;DHT22;5698;47.332;11.180;2023-10-09T07:44:27;21.40;75.80
11284;DHT22;5698;47.332;11.180;2023-10-09T07:47:04;21.60;72.90
11284;DHT22;5698;47.332;11.180;2023-10-09T07:49:43;21.70;74.70
11284;DHT22;5698;47.332;11.180;2023-10-09T07:52:15;21.70;77.40
11284;DHT22;5698;47.332;11.180;2023-10-09T07:54:41;21.70;75.30
11284;DHT22;5698;47.332;11.180;2023-10-09T07:57:17;21.80;73.70
11284;DHT22;5698;47.332;11.180;2023-10-09T07:59:51;22.00;72.00
11284;DHT22;5698;47.332;11.180;2023-10-09T08:02:28;22.10;72.70
11284;DHT22;5698;47.332;11.180;2023-10-09T08:04:59;22.30;74.00
11284;DHT22;5698;47.332;11.180;2023-10-09T08:07:32;22.60;69.20
11284;DHT22;5698;47.332;11.180;2023-10-09T08:10:03;22.80;69.60
11284;DHT22;5698;47.332;11.180;2023-10-09T08:12:50;23.00;67.00
11284;DHT22;5698;47.332;11.180;2023-10-09T08:15:45;23.20;66.70
11284;DHT22;5698;47.332;11.180;2023-10-09T08:18:17;23.50;65.60
11284;DHT22;5698;47.332;11.180;2023-10-09T08:20:54;23.70;65.90
11284;DHT22;5698;47.332;11.180;2023-10-09T08:23:39;23.90;65.60
11284;DHT22;5698;47.332;11.180;2023-10-09T08:26:19;24.00;66.40
11284;DHT22;5698;47.332;11.180;2023-10-09T08:28:57;24.30;65.10
11284;DHT22;5698;47.332;11.180;2023-10-09T08:31:37;24.50;64.60
11284;DHT22;5698;47.332;11.180;2023-10-09T08:34:12;24.70;65.40
11284;DHT22;5698;47.332;11.180;2023-10-09T08:36:51;24.90;64.70
11284;DHT22;5698;47.332;11.180;2023-10-09T08:39:19;25.10;61.80
11284;DHT22;5698;47.332;11.180;2023-10-09T08:41:52;25.30;63.10
11284;DHT22;5698;47.332;11.180;2023-10-09T08:44:25;25.40;61.80
11284;DHT22;5698;47.332;11.180;2023-10-09T08:46:57;25.60;59.60
11284;DHT22;5698;47.332;11.180;2023-10-09T08:49:26;25.80;59.40
11284;DHT22;5698;47.332;11.180;2023-10-09T08:51:53;25.90;60.30
11284;DHT22;5698;47.332;11.180;2023-10-09T08:54:20;25.90;62.60
11284;DHT22;5698;47.332;11.180;2023-10-09T08:56:48;26.00;62.40
11284;DHT22;5698;47.332;11.180;2023-10-09T08:59:18;26.10;62.00
11284;DHT22;5698;47.332;11.180;2023-10-09T09:01:48;26.20;59.00
11284;DHT22;5698;47.332;11.180;2023-10-09T09:04:38;26.40;60.20
11284;DHT22;5698;47.332;11.180;2023-10-09T09:07:06;26.60;57.30
11284;DHT22;5698;47.332;11.180;2023-10-09T09:09:33;26.90;58.40
11284;DHT22;5698;47.332;11.180;2023-10-09T09:12:00;27.20;58.40
11284;DHT22;5698;47.332;11.180;2023-10-09T09:14:37;27.40;56.00
11284;DHT22;5698;47.332;11.180;2023-10-09T09:17:06;27.70;57.50
11284;DHT22;5698;47.332;11.180;2023-10-09T09:19:37;27.70;57.70
11284;DHT22;5698;47.332;11.180;2023-10-09T09:22:05;27.90;56.60
11284;DHT22;5698;47.332;11.180;2023-10-09T09:24:39;28.10;56.10
11284;DHT22;5698;47.332;11.180;2023-10-09T09:27:11;28.20;54.70
11284;DHT22;5698;47.332;11.180;2023-10-09T09:29:45;28.40;55.20
11284;DHT22;5698;47.332;11.180;2023-10-09T09:32:28;28.50;54.80
11284;DHT22;5698;47.332;11.180;2023-10-09T09:35:02;28.80;54.10
11284;DHT22;5698;47.332;11.180;2023-10-09T09:37:31;29.00;55.10
11284;DHT22;5698;47.332;11.180;2023-10-09T09:40:16;29.00;54.20
11284;DHT22;5698;47.332;11.180;2023-10-09T09:42:57;29.10;51.50
11284;DHT22;5698;47.332;11.180;2023-10-09T09:45:31;29.20;52.00
11284;DHT22;5698;47.332;11.180;2023-10-09T09:48:02;29.20;51.80
11284;DHT22;5698;47.332;11.180;2023-10-09T09:50:32;29.30;51.70
11284;DHT22;5698;47.332;11.180;2023-10-09T09:52:59;29.40;51.20
11284;DHT22;5698;47.332;11.180;2023-10-09T09:55:33;29.50;51.40
11284;DHT22;5698;47.332;11.180;2023-10-09T09:58:02;29.50;51.30
11284;DHT22;5698;47.332;11.180;2023-10-09T10:00:33;29.30;51.20
11284;DHT22;5698;47.332;11.180;2023-10-09T10:03:13;29.10;51.70
11284;DHT22;5698;47.332;11.180;2023-10-09T10:05:42;28.90;49.60
11284;DHT22;5698;47.332;11.180;2023-10-09T10:08:15;28.70;49.60
11284;DHT22;5698;47.332;11.180;2023-10-09T10:10:46;28.60;50.20
11284;DHT22;5698;47.332;11.180;2023-10-09T10:13:54;28.50;50.70
11284;DHT22;5698;47.332;11.180;2023-10-09T10:16:24;28.60;48.80
11284;DHT22;5698;47.332;11.180;2023-10-09T10:19:02;28.60;49.50
11284;DHT22;5698;47.332;11.180;2023-10-09T10:21:48;28.40;50.80
11284;DHT22;5698;47.332;11.180;2023-10-09T10:24:40;28.40;51.90
11284;DHT22;5698;47.332;11.180;2023-10-09T10:27:21;28.70;50.00
11284;DHT22;5698;47.332;11.180;2023-10-09T10:32:58;28.80;50.00
11284;DHT22;5698;47.332;11.180;2023-10-09T10:35:36;28.70;50.00
11284;DHT22;5698;47.332;11.180;2023-10-09T10:38:30;28.70;47.40
11284;DHT22;5698;47.332;11.180;2023-10-09T10:41:12;28.60;54.60
11284;DHT22;5698;47.332;11.180;2023-10-09T10:43:42;28.70;48.00
11284;DHT22;5698;47.332;11.180;2023-10-09T10:46:23;28.90;49.30
11284;DHT22;5698;47.332;11.180;2023-10-09T10:49:07;28.90;48.60
11284;DHT22;5698;47.332;11.180;2023-10-09T10:51:48;28.80;48.50
11284;DHT22;5698;47.332;11.180;2023-10-09T10:54:26;28.90;47.70
11284;DHT22;5698;47.332;11.180;2023-10-09T10:57:18;29.00;48.00
11284;DHT22;5698;47.332;11.180;2023-10-09T11:00:18;29.00;47.40
11284;DHT22;5698;47.332;11.180;2023-10-09T11:03:00;29.40;47.00
11284;DHT22;5698;47.332;11.180;2023-10-09T11:05:41;29.60;46.40
11284;DHT22;5698;47.332;11.180;2023-10-09T11:08:13;29.60;45.30
11284;DHT22;5698;47.332;11.180;2023-10-09T11:10:40;29.50;46.00
11284;DHT22;5698;47.332;11.180;2023-10-09T11:13:22;29.30;46.70
11284;DHT22;5698;47.332;11.180;2023-10-09T11:16:00;29.10;44.70
11284;DHT22;5698;47.332;11.180;2023-10-09T11:18:54;28.80;45.90
11284;DHT22;5698;47.332;11.180;2023-10-09T11:21:23;28.50;46.60
11284;DHT22;5698;47.332;11.180;2023-10-09T11:23:59;28.50;46.60
11284;DHT22;5698;47.332;11.180;2023-10-09T11:26:48;28.50;46.70
11284;DHT22;5698;47.332;11.180;2023-10-09T11:29:21;28.30;45.00
11284;DHT22;5698;47.332;11.180;2023-10-09T11:32:17;28.40;45.90
11284;DHT22;5698;47.332;11.180;2023-10-09T11:34:44;28.90;46.00
11284;DHT22;5698;47.332;11.180;2023-10-09T11:37:18;29.40;44.40
11284;DHT22;5698;47.332;11.180;2023-10-09T11:40:00;29.80;44.80
11284;DHT22;5698;47.332;11.180;2023-10-09T11:42:29;30.20;44.20
11284;DHT22;5698;47.332;11.180;2023-10-09T11:45:04;30.30;43.30
11284;DHT22;5698;47.332;11.180;2023-10-09T11:47:45;30.20;43.10
11284;DHT22;5698;47.332;11.180;2023-10-09T11:50:38;30.10;43.80
11284;DHT22;5698;47.332;11.180;2023-10-09T11:53:09;30.10;41.60
11284;DHT22;5698;47.332;11.180;2023-10-09T11:55:44;30.40;42.90
11284;DHT22;5698;47.332;11.180;2023-10-09T11:58:14;30.50;42.30
11284;DHT22;5698;47.332;11.180;2023-10-09T12:00:49;30.50;42.10
11284;DHT22;5698;47.332;11.180;2023-10-09T12:03:19;30.20;42.40
11284;DHT22;5698;47.332;11.180;2023-10-09T12:05:49;30.00;43.10
11284;DHT22;5698;47.332;11.180;2023-10-09T12:08:16;30.10;42.90
11284;DHT22;5698;47.332;11.180;2023-10-09T12:10:44;30.20;42.10
11284;DHT22;5698;47.332;11.180;2023-10-09T12:13:13;30.40;43.20
11284;DHT22;5698;47.332;11.180;2023-10-09T12:15:41;30.50;41.30
11284;DHT22;5698;47.332;11.180;2023-10-09T12:18:12;30.60;41.50
11284;DHT22;5698;47.332;11.180;2023-10-09T12:20:42;30.20;41.70
11284;DHT22;5698;47.332;11.180;2023-10-09T12:23:15;29.70;41.80
11284;DHT22;5698;47.332;11.180;2023-10-09T12:25:44;29.30;42.70
11284;DHT22;5698;47.332;11.180;2023-10-09T12:28:12;29.20;42.40
11284;DHT22;5698;47.332;11.180;2023-10-09T12:30:39;29.10;41.90
11284;DHT22;5698;47.332;11.180;2023-10-09T12:33:07;29.10;42.20
11284;DHT22;5698;47.332;11.180;2023-10-09T12:35:37;29.00;42.10
11284;DHT22;5698;47.332;11.180;2023-10-09T12:38:05;29.10;41.80
11284;DHT22;5698;47.332;11.180;2023-10-09T12:40:34;29.20;41.40
11284;DHT22;5698;47.332;11.180;2023-10-09T12:43:03;29.20;41.60
11284;DHT22;5698;47.332;11.180;2023-10-09T12:45:33;29.10;41.10
11284;DHT22;5698;47.332;11.180;2023-10-09T12:48:01;29.00;41.40
11284;DHT22;5698;47.332;11.180;2023-10-09T12:50:34;29.10;42.40
11284;DHT22;5698;47.332;11.180;2023-10-09T12:53:08;29.10;41.70
11284;DHT22;5698;47.332;11.180;2023-10-09T12:55:36;29.10;41.80
11284;DHT22;5698;47.332;11.180;2023-10-09T12:58:08;28.90;42.40
11284;DHT22;5698;47.332;11.180;2023-10-09T13:00:36;28.70;42.30
11284;DHT22;5698;47.332;11.180;2023-10-09T13:03:09;28.60;43.40
11284;DHT22;5698;47.332;11.180;2023-10-09T13:05:47;28.30;44.20
11284;DHT22;5698;47.332;11.180;2023-10-09T13:08:22;28.10;44.10
11284;DHT22;5698;47.332;11.180;2023-10-09T13:10:51;27.90;43.50
11284;DHT22;5698;47.332;11.180;2023-10-09T13:13:29;27.90;43.20
11284;DHT22;5698;47.332;11.180;2023-10-09T13:16:07;27.80;43.60
11284;DHT22;5698;47.332;11.180;2023-10-09T13:18:34;27.50;42.90
11284;DHT22;5698;47.332;11.180;2023-10-09T13:21:03;27.30;45.00
11284;DHT22;5698;47.332;11.180;2023-10-09T13:23:30;26.90;44.70
11284;DHT22;5698;47.332;11.180;2023-10-09T13:26:07;26.60;44.20
11284;DHT22;5698;47.332;11.180;2023-10-09T13:28:49;26.40;44.40
11284;DHT22;5698;47.332;11.180;2023-10-09T13:31:17;26.10;44.60
11284;DHT22;5698;47.332;11.180;2023-10-09T13:33:44;25.80;45.20
11284;DHT22;5698;47.332;11.180;2023-10-09T13:36:12;25.60;45.80
11284;DHT22;5698;47.332;11.180;2023-10-09T13:38:52;25.40;46.50
11284;DHT22;5698;47.332;11.180;2023-10-09T13:41:20;25.30;49.70
11284;DHT22;5698;47.332;11.180;2023-10-09T13:43:48;25.10;51.10
11284;DHT22;5698;47.332;11.180;2023-10-09T13:46:17;24.90;49.80
11284;DHT22;5698;47.332;11.180;2023-10-09T13:48:44;24.70;47.50
11284;DHT22;5698;47.332;11.180;2023-10-09T13:51:12;24.60;49.20
11284;DHT22;5698;47.332;11.180;2023-10-09T13:53:43;24.50;49.20
11284;DHT22;5698;47.332;11.180;2023-10-09T13:56:14;24.30;52.40
11284;DHT22;5698;47.332;11.180;2023-10-09T13:58:45;24.10;48.80
11284;DHT22;5698;47.332;11.180;2023-10-09T14:01:13;24.00;48.00
11284;DHT22;5698;47.332;11.180;2023-10-09T14:03:53;23.90;47.90
11284;DHT22;5698;47.332;11.180;2023-10-09T14:06:21;23.80;48.10
11284;DHT22;5698;47.332;11.180;2023-10-09T14:08:56;23.60;48.20
11284;DHT22;5698;47.332;11.180;2023-10-09T14:11:24;23.50;48.30
11284;DHT22;5698;47.332;11.180;2023-10-09T14:13:51;23.40;48.90
11284;DHT22;5698;47.332;11.180;2023-10-09T14:16:19;23.30;49.10
11284;DHT22;5698;47.332;11.180;2023-10-09T14:18:55;23.20;48.80
11284;DHT22;5698;47.332;11.180;2023-10-09T14:21:25;23.20;48.60
11284;DHT22;5698;47.332;11.180;2023-10-09T14:23:54;23.00;50.40
11284;DHT22;5698;47.332;11.180;2023-10-09T14:26:24;22.90;49.30
11284;DHT22;5698;47.332;11.180;2023-10-09T14:28:52;22.80;49.40
11284;DHT22;5698;47.332;11.180;2023-10-09T14:31:20;22.80;51.00
11284;DHT22;5698;47.332;11.180;2023-10-09T14:33:53;22.70;50.60
11284;DHT22;5698;47.332;11.180;2023-10-09T14:36:20;22.70;49.80
11284;DHT22;5698;47.332;11.180;2023-10-09T14:38:49;22.60;49.10
11284;DHT22;5698;47.332;11.180;2023-10-09T14:41:19;22.60;49.70
11284;DHT22;5698;47.332;11.180;2023-10-09T14:43:49;22.50;49.20
11284;DHT22;5698;47.332;11.180;2023-10-09T14:46:16;22.40;51.30
11284;DHT22;5698;47.332;11.180;2023-10-09T14:48:50;22.30;51.20
11284;DHT22;5698;47.332;11.180;2023-10-09T14:51:19;22.20;51.20
11284;DHT22;5698;47.332;11.180;2023-10-09T14:53:53;22.10;51.20
11284;DHT22;5698;47.332;11.180;2023-10-09T14:56:23;22.10;51.10
11284;DHT22;5698;47.332;11.180;2023-10-09T14:58:54;22.00;51.10
11284;DHT22;5698;47.332;11.180;2023-10-09T15:01:24;21.90;52.70
11284;DHT22;5698;47.332;11.180;2023-10-09T15:03:56;21.80;51.80
11284;DHT22;5698;47.332;11.180;2023-10-09T15:06:25;21.70;52.70
11284;DHT22;5698;47.332;11.180;2023-10-09T15:08:53;21.60;53.20
11284;DHT22;5698;47.332;11.180;2023-10-09T15:11:25;21.50;56.10
11284;DHT22;5698;47.332;11.180;2023-10-09T15:13:54;21.50;56.10
11284;DHT22;5698;47.332;11.180;2023-10-09T15:16:22;21.40;56.20
11284;DHT22;5698;47.332;11.180;2023-10-09T15:18:54;21.30;55.60
11284;DHT22;5698;47.332;11.180;2023-10-09T15:21:23;21.30;56.70
11284;DHT22;5698;47.332;11.180;2023-10-09T15:23:52;21.20;58.30
11284;DHT22;5698;47.332;11.180;2023-10-09T15:26:20;21.10;55.70
11284;DHT22;5698;47.332;11.180;2023-10-09T15:28:48;21.00;54.50
11284;DHT22;5698;47.332;11.180;2023-10-09T15:31:16;21.00;55.40
11284;DHT22;5698;47.332;11.180;2023-10-09T15:33:44;20.90;54.70
11284;DHT22;5698;47.332;11.180;2023-10-09T15:36:16;20.80;54.50
11284;DHT22;5698;47.332;11.180;2023-10-09T15:38:46;20.70;54.40
11284;DHT22;5698;47.332;11.180;2023-10-09T15:41:13;20.60;54.40
11284;DHT22;5698;47.332;11.180;2023-10-09T15:43:41;20.60;55.20
11284;DHT22;5698;47.332;11.180;2023-10-09T15:46:11;20.50;56.20
11284;DHT22;5698;47.332;11.180;2023-10-09T15:48:40;20.50;57.70
11284;DHT22;5698;47.332;11.180;2023-10-09T15:51:09;20.40;57.80
11284;DHT22;5698;47.332;11.180;2023-10-09T15:53:42;20.40;57.80
11284;DHT22;5698;47.332;11.180;2023-10-09T15:56:09;20.40;59.50
11284;DHT22;5698;47.332;11.180;2023-10-09T15:58:38;20.30;61.00
11284;DHT22;5698;47.332;11.180;2023-10-09T16:01:09;20.20;61.40
11284;DHT22;5698;47.332;11.180;2023-10-09T16:03:39;20.20;62.40
11284;DHT22;5698;47.332;11.180;2023-10-09T16:06:06;20.10;61.70
11284;DHT22;5698;47.332;11.180;2023-10-09T16:08:38;20.00;62.40
11284;DHT22;5698;47.332;11.180;2023-10-09T16:11:06;19.90;63.00
11284;DHT22;5698;47.332;11.180;2023-10-09T16:13:34;19.80;60.90
11284;DHT22;5698;47.332;11.180;2023-10-09T16:16:04;19.70;60.90
11284;DHT22;5698;47.332;11.180;2023-10-09T16:18:33;19.60;64.40